sensor_id;sensor_type;location;lat;lon;timestamp;P1;P2;P0
58740;PMS7003;44512;53.046;18.604;2023-03-23T00:04:39;46;35;24
58740;PMS7003;44512;53.046;18.604;2023-03-23T00:15:08;47;35;23
58740;PMS7003;44512;53.046;18.604;2023-03-23T00:25:36;38;32;22
58740;PMS7003;44512;53.046;18.604;2023-03-23T00:36:05;48;37;25
58740;PMS7003;44512;53.046;18.604;2023-03-23T00:46:33;44;34;23
58740;PMS7003;44512;53.046;18.604;2023-03-23T00:57:01;45;33;23
58740;PMS7003;44512;53.046;18.604;2023-03-23T01:07:30;44;35;24
58740;PMS7003;44512;53.046;18.604;2023-03-23T01:17:58;43;33;23
58740;PMS7003;44512;53.046;18.604;2023-03-23T01:28:27;46;37;25
58740;PMS7003;44512;53.046;18.604;2023-03-23T01:38:55;44;35;24
58740;PMS7003;44512;53.046;18.604;2023-03-23T01:59:53;42;36;25
58740;PMS7003;44512;53.046;18.604;2023-03-23T02:10:20;44;33;23
58740;PMS7003;44512;53.046;18.604;2023-03-23T02:41:47;43;33;22
58740;PMS7003;44512;53.046;18.604;2023-03-23T02:52:16;45;36;24
58740;PMS7003;44512;53.046;18.604;2023-03-23T03:02:43;48;37;26
58740;PMS7003;44512;53.046;18.604;2023-03-23T03:13:19;46;37;25
58740;PMS7003;44512;53.046;18.604;2023-03-23T03:23:40;47;36;23
58740;PMS7003;44512;53.046;18.604;2023-03-23T03:34:08;42;33;23
58740;PMS7003;44512;53.046;18.604;2023-03-23T03:44:36;48;37;25
58740;PMS7003;44512;53.046;18.604;2023-03-23T03:55:05;48;36;24
58740;PMS7003;44512;53.046;18.604;2023-03-23T04:05:33;46;39;26
58740;PMS7003;44512;53.046;18.604;2023-03-23T04:16:02;47;36;24
58740;PMS7003;44512;53.046;18.604;2023-03-23T04:26:30;49;40;27
58740;PMS7003;44512;53.046;18.604;2023-03-23T04:36:58;53;38;27
58740;PMS7003;44512;53.046;18.604;2023-03-23T04:47:27;51;38;25
58740;PMS7003;44512;53.046;18.604;2023-03-23T04:57:55;48;37;24
58740;PMS7003;44512;53.046;18.604;2023-03-23T05:08:23;46;36;24
58740;PMS7003;44512;53.046;18.604;2023-03-23T05:18:52;38;32;22
58740;PMS7003;44512;53.046;18.604;2023-03-23T05:29:20;41;34;23
58740;PMS7003;44512;53.046;18.604;2023-03-23T05:39:49;44;34;24
58740;PMS7003;44512;53.046;18.604;2023-03-23T05:50:17;38;31;23
58740;PMS7003;44512;53.046;18.604;2023-03-23T06:00:46;36;29;21
58740;PMS7003;44512;53.046;18.604;2023-03-23T06:11:14;38;31;21
58740;PMS7003;44512;53.046;18.604;2023-03-23T06:21:43;33;29;20
58740;PMS7003;44512;53.046;18.604;2023-03-23T06:32:11;32;26;18
58740;PMS7003;44512;53.046;18.604;2023-03-23T06:42:39;29;24;18
58740;PMS7003;44512;53.046;18.604;2023-03-23T06:53:08;30;23;18
58740;PMS7003;44512;53.046;18.604;2023-03-23T07:03:37;23;20;15
58740;PMS7003;44512;53.046;18.604;2023-03-23T07:14:04;24;20;14
58740;PMS7003;44512;53.046;18.604;2023-03-23T07:24:33;20;16;12
58740;PMS7003;44512;53.046;18.604;2023-03-23T07:35:01;27;19;14
58740;PMS7003;44512;53.046;18.604;2023-03-23T07:45:30;20;16;13
58740;PMS7003;44512;53.046;18.604;2023-03-23T07:55:58;16;14;11
58740;PMS7003;44512;53.046;18.604;2023-03-23T08:06:26;18;13;10
58740;PMS7003;44512;53.046;18.604;2023-03-23T08:16:55;16;13;10
58740;PMS7003;44512;53.046;18.604;2023-03-23T08:27:23;12;10;8
58740;PMS7003;44512;53.046;18.604;2023-03-23T08:37:51;9;7;5
58740;PMS7003;44512;53.046;18.604;2023-03-23T08:48:20;9;8;7
58740;PMS7003;44512;53.046;18.604;2023-03-23T08:58:48;10;9;8
58740;PMS7003;44512;53.046;18.604;2023-03-23T09:09:16;10;9;7
58740;PMS7003;44512;53.046;18.604;2023-03-23T09:19:45;10;8;7
58740;PMS7003;44512;53.046;18.604;2023-03-23T09:35:23;6;5;5
58740;PMS7003;44512;53.046;18.604;2023-03-23T09:56:19;4;3;3
58740;PMS7003;44512;53.046;18.604;2023-03-23T10:06:47;2;2;2
58740;PMS7003;44512;53.046;18.604;2023-03-23T10:17:22;4;3;3
58740;PMS7003;44512;53.046;18.604;2023-03-23T10:27:45;3;3;2
58740;PMS7003;44512;53.046;18.604;2023-03-23T10:38:17;4;4;3
58740;PMS7003;44512;53.046;18.604;2023-03-23T10:48:41;5;3;3
58740;PMS7003;44512;53.046;18.604;2023-03-23T10:59:13;3;3;2
58740;PMS7003;44512;53.046;18.604;2023-03-23T11:09:38;4;3;3
58740;PMS7003;44512;53.046;18.604;2023-03-23T11:20:09;3;3;2
58740;PMS7003;44512;53.046;18.604;2023-03-23T11:30:34;3;3;2
58740;PMS7003;44512;53.046;18.604;2023-03-23T11:41:08;5;4;3
58740;PMS7003;44512;53.046;18.604;2023-03-23T12:23:20;5;3;2
58740;PMS7003;44512;53.046;18.604;2023-03-23T12:43:57;4;3;2
58740;PMS7003;44512;53.046;18.604;2023-03-23T13:04:56;5;4;3
58740;PMS7003;44512;53.046;18.604;2023-03-23T13:36:14;4;3;3
58740;PMS7003;44512;53.046;18.604;2023-03-23T13:46:53;6;4;3
58740;PMS7003;44512;53.046;18.604;2023-03-23T14:18:11;3;2;2
58740;PMS7003;44512;53.046;18.604;2023-03-23T14:28:39;5;3;3
58740;PMS7003;44512;53.046;18.604;2023-03-23T14:39:05;2;2;2
58740;PMS7003;44512;53.046;18.604;2023-03-23T14:49:36;4;4;3
58740;PMS7003;44512;53.046;18.604;2023-03-23T15:00:01;3;3;3
58740;PMS7003;44512;53.046;18.604;2023-03-23T15:10:29;3;3;2
58740;PMS7003;44512;53.046;18.604;2023-03-23T15:20:58;2;2;2
58740;PMS7003;44512;53.046;18.604;2023-03-23T15:31:26;6;4;3
58740;PMS7003;44512;53.046;18.604;2023-03-23T15:41:55;4;4;3
58740;PMS7003;44512;53.046;18.604;2023-03-23T15:52:23;4;3;2
58740;PMS7003;44512;53.046;18.604;2023-03-23T16:02:52;6;4;3
58740;PMS7003;44512;53.046;18.604;2023-03-23T16:13:19;4;4;3
58740;PMS7003;44512;53.046;18.604;2023-03-23T16:23:48;5;4;4
58740;PMS7003;44512;53.046;18.604;2023-03-23T16:34:16;12;11;8
58740;PMS7003;44512;53.046;18.604;2023-03-23T16:44:44;7;6;5
58740;PMS7003;44512;53.046;18.604;2023-03-23T16:55:14;7;6;5
58740;PMS7003;44512;53.046;18.604;2023-03-23T17:05:41;9;6;5
58740;PMS7003;44512;53.046;18.604;2023-03-23T17:16:09;7;5;5
58740;PMS7003;44512;53.046;18.604;2023-03-23T17:26:38;14;12;10
58740;PMS7003;44512;53.046;18.604;2023-03-23T17:37:06;12;12;9
58740;PMS7003;44512;53.046;18.604;2023-03-23T17:47:35;15;13;10
58740;PMS7003;44512;53.046;18.604;2023-03-23T17:58:03;10;10;8
58740;PMS7003;44512;53.046;18.604;2023-03-23T18:08:31;14;11;9
58740;PMS7003;44512;53.046;18.604;2023-03-23T18:19:00;14;12;11
58740;PMS7003;44512;53.046;18.604;2023-03-23T18:29:28;15;12;10
58740;PMS7003;44512;53.046;18.604;2023-03-23T18:39:57;16;12;10
58740;PMS7003;44512;53.046;18.604;2023-03-23T18:50:25;14;12;10
58740;PMS7003;44512;53.046;18.604;2023-03-23T19:00:55;14;11;9
58740;PMS7003;44512;53.046;18.604;2023-03-23T19:11:22;15;11;8
58740;PMS7003;44512;53.046;18.604;2023-03-23T19:21:50;18;15;11
58740;PMS7003;44512;53.046;18.604;2023-03-23T19:32:18;14;12;10
58740;PMS7003;44512;53.046;18.604;2023-03-23T19:42:46;14;13;10
58740;PMS7003;44512;53.046;18.604;2023-03-23T19:53:15;13;11;9
58740;PMS7003;44512;53.046;18.604;2023-03-23T20:03:43;17;13;11
58740;PMS7003;44512;53.046;18.604;2023-03-23T20:14:11;15;13;10
58740;PMS7003;44512;53.046;18.604;2023-03-23T20:24:40;7;7;6
58740;PMS7003;44512;53.046;18.604;2023-03-23T20:35:09;11;10;8
58740;PMS7003;44512;53.046;18.604;2023-03-23T20:45:36;7;6;5
58740;PMS7003;44512;53.046;18.604;2023-03-23T20:56:05;11;10;8
58740;PMS7003;44512;53.046;18.604;2023-03-23T21:06:33;13;12;9
58740;PMS7003;44512;53.046;18.604;2023-03-23T21:17:02;5;5;4
58740;PMS7003;44512;53.046;18.604;2023-03-23T21:27:30;6;5;4
58740;PMS7003;44512;53.046;18.604;2023-03-23T21:37:58;7;6;4
58740;PMS7003;44512;53.046;18.604;2023-03-23T21:48:27;6;5;4
58740;PMS7003;44512;53.046;18.604;2023-03-23T21:58:55;10;9;6
58740;PMS7003;44512;53.046;18.604;2023-03-23T22:09:23;11;10;7
58740;PMS7003;44512;53.046;18.604;2023-03-23T22:19:52;16;15;11
58740;PMS7003;44512;53.046;18.604;2023-03-23T22:30:20;19;15;11
58740;PMS7003;44512;53.046;18.604;2023-03-23T22:51:17;13;9;7
58740;PMS7003;44512;53.046;18.604;2023-03-23T23:01:45;11;10;8
58740;PMS7003;44512;53.046;18.604;2023-03-23T23:12:14;14;12;9
58740;PMS7003;44512;53.046;18.604;2023-03-23T23:22:42;19;14;10
58740;PMS7003;44512;53.046;18.604;2023-03-23T23:33:10;25;21;15
58740;PMS7003;44512;53.046;18.604;2023-03-23T23:43:39;29;22;16
58740;PMS7003;44512;53.046;18.604;2023-03-23T23:54:07;25;20;14
